Latest Weather Observations for Narrabri

IDN60801

Issued at 9:52 pm EST Tuesday 4 August 2020 (issued every 10 minutes, with the page automatically refreshed every 10 minutes)

About weather observations | Map of weather stations | Latest weather observations for NSW | Other Formats
Station Details ID: 054038 Name: NARRABRI AIRPORT AWS Lat: -30.32 Lon: 149.83 Height: 229.02 m
Data from the previous 72 hours. | See also: Recent months at Narrabri
Date/Time
EST
Temp
°C
App
Temp
°C
Dew
Point
°C
Rel
Hum
%
Delta-T
°C
Wind Press
QNH
hPa
Press
MSL
hPa
Rain since
9am
mm
Dir  Spd
km/h
Gust
km/h
Spd
kts
Gust
kts
04/09:30pm 11.3 7.1 1.8 52 4.1 E 13 15 7 8 1014.1 1014.1 0.0
04/09:00pm 10.7 6.6 2.0 55 3.7 E 13 15 7 8 1014.1 1014.1 0.0
04/08:30pm 12.0 7.7 1.3 48 4.6 E 13 15 7 8 1013.9 1013.9 0.0
04/08:00pm 12.2 8.0 1.5 48 4.6 E 13 15 7 8 1013.9 1013.9 0.0
04/07:30pm 13.0 9.1 1.0 44 5.1 ENE 11 13 6 7 1013.8 1013.8 0.0
04/07:00pm 13.2 9.7 1.2 44 5.2 ENE 9 11 5 6 1013.6 1013.6 0.0
04/06:30pm 12.6 10.7 0.4 43 5.1 CALM 0 0 0 0 1013.6 1013.6 0.0
04/06:00pm 15.2 13.1 -0.5 34 6.7 CALM 0 6 0 3 1013.3 1013.3 0.0
04/05:30pm 16.8 12.7 0.0 32 7.3 WSW 11 15 6 8 1013.2 1013.2 0.0
04/05:00pm 20.0 15.7 1.0 28 8.7 WNW 13 17 7 9 1013.2 1013.2 0.0
04/04:30pm 20.1 14.6 0.5 27 8.9 WNW 19 22 10 12 1012.8 1012.8 0.0
04/04:00pm 21.8 15.8 0.9 25 9.7 WNW 22 30 12 16 1012.7 1012.7 0.0
04/03:30pm 22.1 16.3 0.0 23 10.1 W 20 28 11 15 1012.5 1012.5 0.0
04/03:00pm 21.4 14.5 0.0 24 9.7 W 26 32 14 17 1012.7 1012.7 0.0
04/02:30pm 22.9 17.0 -0.6 21 10.6 WNW 20 28 11 15 1012.7 1012.7 0.0
04/02:00pm 22.7 15.9 1.1 24 10.1 WSW 26 37 14 20 1012.8 1012.8 0.0
04/01:30pm 22.4 15.9 0.3 23 10.1 W 24 37 13 20 1013.0 1013.0 0.0
04/01:00pm 22.3 17.2 3.9 30 9.0 NW 20 30 11 16 1013.3 1013.3 0.0
04/12:30pm 21.7 16.0 4.7 33 8.4 NW 24 32 13 17 1013.7 1013.7 0.0
04/12:00pm 21.5 16.3 5.4 35 8.1 NNW 22 30 12 16 1014.3 1014.3 0.0
04/11:30am 20.7 15.0 5.1 36 7.7 NNW 24 33 13 18 1014.7 1014.7 0.0
04/11:00am 20.3 15.0 5.1 37 7.5 NNW 22 32 12 17 1015.1 1015.1 0.0
04/10:30am 20.1 14.6 5.7 39 7.2 N 24 30 13 16 1015.2 1015.2 0.0
04/10:00am 19.4 14.3 4.0 36 7.4 N 20 26 11 14 1015.5 1015.5 0.0
04/09:30am 18.7 16.0 5.5 42 6.5 W 9 20 5 11 1015.7 1015.8 0.0
04/09:00am 14.1 12.5 6.5 60 3.7 WNW 4 6 2 3 1016.0 1016.1 0.0
04/08:30am 10.7 8.4 5.9 72 2.3 S 7 9 4 5 1015.9 1016.0 0.0
04/08:00am 6.0 3.2 3.3 83 1.1 SW 7 9 4 5 1016.0 1016.1 0.0
04/07:30am 3.3 1.1 1.0 85 0.9 SSW 2 7 1 4 1015.8 1015.9 0.0
04/07:00am 2.5 -0.6 -0.1 83 1.0 ESE 6 7 3 4 1015.7 1015.8 0.0
04/06:30am 3.0 -0.1 0.2 82 1.1 SE 6 11 3 6 1015.6 1015.6 0.0
04/06:00am 3.2 1.4 0.9 85 0.9 CALM 0 0 0 0 1015.6 1015.6 0.0
04/05:30am 2.9 1.0 0.6 85 0.9 CALM 0 0 0 0 1015.6 1015.6 0.0
04/05:00am 3.7 1.5 0.9 82 1.1 S 2 7 1 4 1015.6 1015.6 0.0
04/04:30am 4.3 2.6 2.0 85 0.9 CALM 0 0 0 0 1015.8 1015.9 0.0
04/04:00am 3.6 1.9 1.6 87 0.8 CALM 0 0 0 0 1016.3 1016.3 0.0
04/03:30am 2.5 0.5 0.1 84 0.9 CALM 0 2 0 1 1016.1 1016.2 0.0
04/03:00am 3.2 -0.1 0.4 82 1.1 ESE 7 11 4 6 1016.3 1016.3 0.0
04/02:30am 3.7 0.1 0.9 82 1.1 S 9 11 5 6 1016.6 1016.6 0.0
04/02:00am 8.1 4.2 3.4 72 2.0 E 13 17 7 9 1016.8 1016.8 0.0
04/01:30am 6.4 3.6 2.9 78 1.5 SE 7 13 4 7 1016.9 1016.9 0.0
04/01:00am 4.8 2.0 2.2 83 1.1 ESE 6 13 3 7 1017.1 1017.1 0.0
04/12:30am 5.0 3.3 1.8 80 1.3 CALM 0 0 0 0 1017.1 1017.1 0.0
04/12:00am 4.3 2.6 1.7 83 1.0 CALM 0 0 0 0 1017.2 1017.2 0.0
 
Date/Time
EST
Temp
°C
App
Temp
°C
Dew
Point
°C
Rel
Hum
%
Delta-T
°C
Wind Press
QNH
hPa
Press
MSL
hPa
Rain since
9am
mm
Dir  Spd
km/h
Gust
km/h
Spd
kts
Gust
kts
03/11:30pm 4.9 2.7 1.2 77 1.5 S 2 6 1 3 1017.3 1017.3 0.0
03/11:00pm 5.2 2.3 1.3 76 1.6 SSW 6 11 3 6 1017.5 1017.5 0.0
03/10:30pm 7.1 5.5 2.6 73 1.9 CALM 0 0 0 0 1017.4 1017.4 0.0
03/10:00pm 7.3 4.5 2.2 70 2.1 S 6 9 3 5 1017.5 1017.5 0.0
03/09:30pm 9.9 5.3 3.9 66 2.7 E 17 20 9 11 1017.2 1017.2 0.0
03/09:00pm 8.7 3.7 3.5 70 2.3 E 19 22 10 12 1017.4 1017.4 0.0
03/08:30pm 11.4 7.2 3.7 59 3.5 E 15 20 8 11 1017.6 1017.6 0.0
03/08:00pm 11.7 7.4 3.5 57 3.7 E 15 17 8 9 1017.7 1017.7 0.0
03/07:30pm 11.3 7.7 3.1 57 3.6 E 11 13 6 7 1017.5 1017.5 0.0
03/07:00pm 8.0 4.9 1.4 63 2.7 ESE 7 9 4 5 1017.3 1017.3 0.0
03/06:58pm 8.9 5.5 1.6 60 3.1 SE 9 9 5 5 1017.3 1017.3 0.0
03/06:30pm 14.0 11.3 2.6 46 5.1 NNE 6 7 3 4 1017.4 1017.4 0.0
03/06:00pm 14.0 11.1 2.6 46 5.1 NNE 7 9 4 5 1017.3 1017.3 0.0
03/05:30pm 16.5 13.9 3.2 41 6.2 N 6 7 3 4 1017.2 1017.2 0.0
03/05:00pm 17.9 14.2 2.6 36 7.1 N 11 13 6 7 1017.1 1017.1 0.0
03/04:30pm 19.5 15.3 1.5 30 8.3 NNW 13 17 7 9 1017.2 1017.2 0.0
03/04:00pm 20.4 15.7 0.8 27 8.9 NNW 15 20 8 11 1017.4 1017.4 0.0
03/03:30pm 20.5 15.8 0.9 27 9.0 NW 15 22 8 12 1017.6 1017.6 0.0
03/03:00pm 20.6 15.8 0.4 26 9.1 NW 15 20 8 11 1017.8 1017.8 0.0
03/02:30pm 20.8 15.3 0.6 26 9.2 WNW 19 26 10 14 1018.2 1018.2 0.0
03/02:00pm 20.7 14.5 0.0 25 9.3 NNW 22 30 12 16 1018.4 1018.4 0.0
03/01:30pm 20.7 15.1 1.1 27 9.0 NW 20 32 11 17 1019.0 1019.0 0.0
03/01:00pm 20.5 16.0 2.3 30 8.5 NNW 15 26 8 14 1019.3 1019.3 0.0
03/12:30pm 20.7 16.7 3.0 31 8.4 NNW 13 24 7 13 1019.8 1019.9 0.0
03/12:00pm 20.4 16.2 4.0 34 7.9 NNW 15 24 8 13 1020.4 1020.5 0.0
03/11:30am 19.3 14.4 3.9 36 7.4 NNW 19 26 10 14 1021.0 1021.0 0.0
03/11:00am 18.3 14.0 5.2 42 6.4 NNW 17 24 9 13 1021.5 1021.5 0.0
03/10:30am 17.9 13.7 5.8 45 6.0 NNW 17 24 9 13 1022.2 1022.2 0.0
03/10:00am 14.5 12.3 6.3 58 4.0 NW 7 11 4 6 1022.6 1022.6 0.0
03/09:30am 11.9 10.5 5.5 65 3.0 NW 2 7 1 4 1022.8 1022.8 0.0
03/09:00am 10.4 9.4 5.6 72 2.2 CALM 0 6 0 3 1022.6 1022.6 0.0
03/08:30am 9.6 7.5 5.6 76 1.8 SE 6 7 3 4 1022.6 1022.6 0.0
03/08:00am 5.5 4.2 4.0 90 0.6 CALM 0 4 0 2 1022.3 1022.3 0.0
03/07:30am 3.0 0.1 1.4 89 0.6 S 6 7 3 4 1022.0 1022.0 0.0
03/07:00am 1.8 -1.5 -0.1 87 0.7 S 7 11 4 6 1021.8 1021.8 0.0
03/06:30am 2.6 -1.3 1.0 89 0.6 ENE 11 13 6 7 1021.4 1021.4 0.0
03/06:00am 3.0 1.2 1.4 89 0.6 CALM 0 0 0 0 1021.2 1021.2 0.0
03/05:30am 3.0 0.1 1.2 88 0.7 ENE 6 7 3 4 1021.1 1021.1 0.0
03/05:00am 4.0 1.3 2.4 89 0.6 E 6 9 3 5 1020.6 1020.7 0.0
03/04:30am 4.0 2.4 2.4 89 0.6 CALM 0 0 0 0 1020.6 1020.7 0.0
03/04:00am 3.5 1.7 1.4 86 0.8 CALM 0 0 0 0 1021.0 1021.0 0.0
03/03:30am 4.3 2.0 2.5 88 0.7 SSE 4 7 2 4 1021.2 1021.2 0.0
03/03:00am 3.9 2.2 1.8 86 0.8 CALM 0 0 0 0 1021.1 1021.1 0.0
03/02:30am 4.2 2.6 2.6 89 0.7 CALM 0 0 0 0 1021.5 1021.5 0.0
03/02:00am 3.8 2.1 1.7 86 0.8 CALM 0 0 0 0 1021.6 1021.6 0.0
03/01:30am 3.5 1.7 1.4 86 0.8 CALM 0 0 0 0 1021.6 1021.6 0.0
03/01:00am 4.9 3.3 2.6 85 0.9 CALM 0 0 0 0 1021.8 1021.8 0.0
03/12:30am 5.9 4.4 3.2 83 1.1 CALM 0 0 0 0 1021.9 1021.9 0.0
03/12:00am 6.0 3.3 3.5 84 1.1 ENE 7 11 4 6 1022.1 1022.1 0.0
 
Date/Time
EST
Temp
°C
App
Temp
°C
Dew
Point
°C
Rel
Hum
%
Delta-T
°C
Wind Press
QNH
hPa
Press
MSL
hPa
Rain since
9am
mm
Dir  Spd
km/h
Gust
km/h
Spd
kts
Gust
kts
02/11:30pm 5.4 2.7 2.4 81 1.2 S 6 7 3 4 1022.3 1022.3 0.0
02/11:00pm 6.8 5.3 3.2 78 1.5 CALM 0 0 0 0 1022.4 1022.4 0.0
02/10:30pm 7.3 5.9 3.7 78 1.6 CALM 0 0 0 0 1022.4 1022.4 0.0
02/10:00pm 7.8 5.5 2.9 71 2.1 SE 4 7 2 4 1022.4 1022.4 0.0
02/09:30pm 10.1 6.8 4.5 68 2.5 E 11 15 6 8 1022.4 1022.4 0.0
02/09:00pm 9.9 7.3 4.3 68 2.5 ESE 7 11 4 6 1022.6 1022.6 0.0
02/08:30pm 10.5 6.4 4.6 67 2.7 E 15 17 8 9 1022.8 1022.8 0.0
02/08:00pm 10.9 6.9 4.8 66 2.8 E 15 17 8 9 1022.9 1022.9 0.0
02/07:30pm 10.7 7.1 5.0 68 2.6 E 13 15 7 8 1022.9 1022.9 0.0
02/07:00pm 11.3 8.6 3.8 60 3.4 ESE 7 11 4 6 1023.0 1023.0 0.0
02/06:30pm 11.5 10.2 4.0 60 3.4 CALM 0 0 0 0 1022.7 1022.7 0.0
02/06:00pm 14.0 12.6 3.8 50 4.7 CALM 0 0 0 0 1022.6 1022.6 0.0
02/05:30pm 16.2 13.1 3.6 43 5.9 WSW 9 11 5 6 1022.6 1022.6 0.0
02/05:00pm 18.6 15.4 3.3 36 7.2 WSW 9 11 5 6 1022.5 1022.5 0.0
02/04:30pm 19.7 16.1 3.0 33 7.9 WNW 11 15 6 8 1022.5 1022.5 0.0
02/04:00pm 20.1 16.9 2.9 32 8.1 WSW 9 15 5 8 1022.5 1022.5 0.0
02/03:30pm 20.4 17.7 2.7 31 8.4 WSW 6 11 3 6 1022.5 1022.5 0.0
02/03:00pm 20.8 18.2 3.1 31 8.4 NW 6 11 3 6 1022.6 1022.6 0.0
02/02:30pm 19.9 16.9 2.3 31 8.2 WSW 7 15 4 8 1022.7 1022.7 0.0
02/02:00pm 19.9 16.6 2.7 32 8.1 NW 9 17 5 9 1023.0 1023.0 0.0
02/01:30pm 20.0 16.8 3.3 33 8.0 NW 9 17 5 9 1023.3 1023.4 0.0
02/01:00pm 19.9 16.6 2.7 32 8.1 NNW 9 17 5 9 1023.6 1023.7 0.0
02/12:30pm 19.0 16.0 4.0 37 7.2 W 9 15 5 8 1024.1 1024.2 0.0
02/12:02pm 18.4 14.8 2.7 35 7.3 NW 11 17 6 9 1024.7 1024.8 0.0
02/12:00pm 18.7 15.2 3.3 36 7.2 NNW 11 17 6 9 1024.8 1024.9 0.0
02/11:43am 18.7 15.8 4.8 40 6.8 WNW 9 17 5 9 1025.0 1025.1 0.0
02/11:30am 18.7 16.4 4.8 40 6.8 NNW 6 13 3 7 1025.2 1025.3 0.0
02/11:00am 17.3 15.1 6.2 48 5.5 SSW 7 11 4 6 1025.8 1025.8 0.0
02/10:30am 16.1 14.0 5.7 50 5.1 WSW 6 7 3 4 1026.0 1026.0 0.0
02/10:00am 14.3 12.1 6.2 58 3.9 S 7 9 4 5 1026.4 1026.4 0.0
02/09:30am 12.5 10.3 6.3 66 3.0 S 7 9 4 5 1026.5 1026.5 0.0
02/09:00am 10.4 8.1 5.6 72 2.2 SSE 7 9 4 5 1026.5 1026.5 0.0
02/08:30am 8.5 6.3 5.3 80 1.5 S 6 7 3 4 1026.3 1026.3 0.0
02/08:00am 7.4 4.9 4.5 82 1.3 SE 7 13 4 7 1026.0 1026.0 0.0
02/07:30am 6.7 5.1 4.7 87 0.9 ESE 2 7 1 4 1025.8 1025.8 0.0
02/07:00am 6.3 3.8 4.5 88 0.8 SSE 7 15 4 8 1025.5 1025.5 0.0
02/06:30am 5.8 3.2 4.4 91 0.6 SE 7 15 4 8 1025.2 1025.3 0.0
02/06:00am 3.9 1.5 2.4 90 0.6 SE 4 11 2 6 1024.9 1025.0 0.0
02/05:30am 4.4 2.9 2.9 90 0.6 CALM 0 7 0 4 1024.5 1024.6 0.0
02/05:00am 4.3 2.7 2.7 89 0.7 CALM 0 0 0 0 1024.3 1024.4 0.0
02/04:30am 4.7 3.2 3.0 89 0.7 CALM 0 0 0 0 1024.2 1024.3 0.0
02/04:00am 4.7 3.2 2.9 88 0.7 CALM 0 0 0 0 1024.3 1024.4 0.0
02/03:30am 6.6 4.3 4.8 88 0.8 SE 6 9 3 5 1024.3 1024.4 0.0
02/03:00am 6.1 3.2 4.6 90 0.7 SE 9 13 5 7 1024.4 1024.5 0.0
02/02:30am 4.1 1.2 2.5 89 0.7 SSE 7 9 4 5 1024.6 1024.7 0.0
02/02:00am 4.5 2.9 2.7 88 0.7 CALM 0 0 0 0 1024.7 1024.8 0.0
02/01:30am 4.5 2.9 2.5 87 0.8 CALM 0 0 0 0 1024.9 1025.0 0.0
02/01:00am 4.3 2.6 2.0 85 0.9 CALM 0 0 0 0 1025.1 1025.2 0.0
02/12:30am 4.7 2.7 2.2 84 1.0 SW 2 7 1 4 1025.2 1025.3 0.0
02/12:00am 6.0 3.5 3.7 85 1.0 ESE 6 9 3 5 1025.1 1025.2 0.0
 
Date/Time
EST
Temp
°C
App
Temp
°C
Dew
Point
°C
Rel
Hum
%
Delta-T
°C
Wind Press
QNH
hPa
Press
MSL
hPa
Rain since
9am
mm
Dir  Spd
km/h
Gust
km/h
Spd
kts
Gust
kts
01/11:30pm 5.0 2.9 2.0 81 1.2 S 2 7 1 4 1025.2 1025.3 0.0
01/11:00pm 6.5 4.3 3.3 80 1.4 SE 4 11 2 6 1025.1 1025.2 0.0
01/10:30pm 9.1 6.2 4.7 74 2.0 ESE 9 15 5 8 1025.1 1025.2 0.0
01/10:00pm 8.5 4.2 5.3 80 1.4 E 17 20 9 11 1025.1 1025.2 0.0

Other formats

Comma delimited format used in spreadsheet applications
http://www.bom.gov.au/fwo/IDN60801/IDN60801.95734.axf

JavaScript Object Notation format (JSON) in row-major order
http://www.bom.gov.au/fwo/IDN60801/IDN60801.95734.json

Data quality

Most of these data are generated automatically and are frequently updated. Quality checks on data are not normally performed. It is possible for incorrect values to appear. Refer to information at About Latest Weather Observations and please check the disclaimer before using these data.